sensor_id;sensor_type;location;lat;lon;timestamp;P1;durP1;ratioP1;P2;durP2;ratioP2
81314;SDS011;75773;52.534;5.686;2024-02-26T00:00:09;5.40;;;2.83;;
81314;SDS011;75773;52.534;5.686;2024-02-26T00:02:39;4.95;;;2.00;;
81314;SDS011;75773;52.534;5.686;2024-02-26T00:05:09;3.28;;;2.40;;
81314;SDS011;75773;52.534;5.686;2024-02-26T00:07:38;4.00;;;2.67;;
81314;SDS011;75773;52.534;5.686;2024-02-26T00:10:11;2.30;;;1.55;;
81314;SDS011;75773;52.534;5.686;2024-02-26T00:12:41;2.20;;;1.92;;
81314;SDS011;75773;52.534;5.686;2024-02-26T00:15:13;3.33;;;2.25;;
81314;SDS011;75773;52.534;5.686;2024-02-26T00:17:42;2.67;;;1.83;;
81314;SDS011;75773;52.534;5.686;2024-02-26T00:20:13;3.70;;;1.65;;
81314;SDS011;75773;52.534;5.686;2024-02-26T00:22:42;5.65;;;2.33;;
81314;SDS011;75773;52.534;5.686;2024-02-26T00:25:14;4.75;;;2.40;;
81314;SDS011;75773;52.534;5.686;2024-02-26T00:27:43;2.63;;;2.00;;
81314;SDS011;75773;52.534;5.686;2024-02-26T00:30:21;6.53;;;2.70;;
81314;SDS011;75773;52.534;5.686;2024-02-26T00:32:51;5.93;;;3.22;;
81314;SDS011;75773;52.534;5.686;2024-02-26T00:35:22;4.53;;;2.30;;
81314;SDS011;75773;52.534;5.686;2024-02-26T00:37:52;4.72;;;3.22;;
81314;SDS011;75773;52.534;5.686;2024-02-26T00:40:24;3.45;;;2.33;;
81314;SDS011;75773;52.534;5.686;2024-02-26T00:42:53;4.65;;;2.60;;
81314;SDS011;75773;52.534;5.686;2024-02-26T00:45:22;6.47;;;2.88;;
81314;SDS011;75773;52.534;5.686;2024-02-26T00:47:57;6.60;;;2.58;;
81314;SDS011;75773;52.534;5.686;2024-02-26T00:50:30;5.05;;;3.13;;
81314;SDS011;75773;52.534;5.686;2024-02-26T00:52:59;4.60;;;2.40;;
81314;SDS011;75773;52.534;5.686;2024-02-26T00:55:31;3.63;;;2.38;;
81314;SDS011;75773;52.534;5.686;2024-02-26T00:58:01;5.72;;;2.17;;
81314;SDS011;75773;52.534;5.686;2024-02-26T01:00:30;8.05;;;2.67;;
81314;SDS011;75773;52.534;5.686;2024-02-26T01:02:59;6.22;;;3.33;;
81314;SDS011;75773;52.534;5.686;2024-02-26T01:05:29;3.42;;;2.38;;
81314;SDS011;75773;52.534;5.686;2024-02-26T01:07:59;3.85;;;2.65;;
81314;SDS011;75773;52.534;5.686;2024-02-26T01:10:31;3.38;;;2.33;;
81314;SDS011;75773;52.534;5.686;2024-02-26T01:13:00;4.00;;;1.70;;
81314;SDS011;75773;52.534;5.686;2024-02-26T01:15:29;3.63;;;2.35;;
81314;SDS011;75773;52.534;5.686;2024-02-26T01:17:59;5.43;;;2.63;;
81314;SDS011;75773;52.534;5.686;2024-02-26T01:20:28;6.43;;;2.10;;
81314;SDS011;75773;52.534;5.686;2024-02-26T01:22:58;5.72;;;3.00;;
81314;SDS011;75773;52.534;5.686;2024-02-26T01:25:28;5.45;;;3.10;;
81314;SDS011;75773;52.534;5.686;2024-02-26T01:28:00;5.85;;;2.65;;
81314;SDS011;75773;52.534;5.686;2024-02-26T01:30:29;3.40;;;1.92;;
81314;SDS011;75773;52.534;5.686;2024-02-26T01:32:58;6.60;;;3.42;;
81314;SDS011;75773;52.534;5.686;2024-02-26T01:35:27;5.43;;;2.38;;
81314;SDS011;75773;52.534;5.686;2024-02-26T01:37:57;5.78;;;3.30;;
81314;SDS011;75773;52.534;5.686;2024-02-26T01:40:26;5.55;;;2.92;;
81314;SDS011;75773;52.534;5.686;2024-02-26T01:42:58;7.63;;;3.20;;
81314;SDS011;75773;52.534;5.686;2024-02-26T01:45:28;5.57;;;3.05;;
81314;SDS011;75773;52.534;5.686;2024-02-26T01:47:57;4.53;;;2.80;;
81314;SDS011;75773;52.534;5.686;2024-02-26T01:50:27;5.45;;;2.95;;
81314;SDS011;75773;52.534;5.686;2024-02-26T01:53:00;6.07;;;3.47;;
81314;SDS011;75773;52.534;5.686;2024-02-26T01:55:29;5.32;;;2.47;;
81314;SDS011;75773;52.534;5.686;2024-02-26T01:58:02;6.20;;;3.25;;
81314;SDS011;75773;52.534;5.686;2024-02-26T02:00:31;4.30;;;3.08;;
81314;SDS011;75773;52.534;5.686;2024-02-26T02:03:01;3.97;;;3.05;;
81314;SDS011;75773;52.534;5.686;2024-02-26T02:05:32;4.95;;;2.83;;
81314;SDS011;75773;52.534;5.686;2024-02-26T02:08:07;7.60;;;3.58;;
81314;SDS011;75773;52.534;5.686;2024-02-26T02:10:37;7.10;;;3.30;;
81314;SDS011;75773;52.534;5.686;2024-02-26T02:13:10;3.50;;;2.03;;
81314;SDS011;75773;52.534;5.686;2024-02-26T02:15:39;4.03;;;2.80;;
81314;SDS011;75773;52.534;5.686;2024-02-26T02:18:09;6.88;;;2.88;;
81314;SDS011;75773;52.534;5.686;2024-02-26T02:20:41;5.05;;;2.30;;
81314;SDS011;75773;52.534;5.686;2024-02-26T02:23:10;4.95;;;2.33;;
81314;SDS011;75773;52.534;5.686;2024-02-26T02:25:41;9.30;;;3.40;;
81314;SDS011;75773;52.534;5.686;2024-02-26T02:28:11;5.32;;;2.88;;
81314;SDS011;75773;52.534;5.686;2024-02-26T02:30:43;4.72;;;2.38;;
81314;SDS011;75773;52.534;5.686;2024-02-26T02:33:17;8.93;;;3.58;;
81314;SDS011;75773;52.534;5.686;2024-02-26T02:35:52;7.90;;;3.80;;
81314;SDS011;75773;52.534;5.686;2024-02-26T02:40:53;3.40;;;1.88;;
81314;SDS011;75773;52.534;5.686;2024-02-26T02:43:22;4.25;;;2.40;;
81314;SDS011;75773;52.534;5.686;2024-02-26T02:45:53;10.88;;;4.03;;
81314;SDS011;75773;52.534;5.686;2024-02-26T02:48:22;4.45;;;2.45;;
81314;SDS011;75773;52.534;5.686;2024-02-26T02:50:54;4.88;;;3.35;;
81314;SDS011;75773;52.534;5.686;2024-02-26T02:53:24;4.97;;;2.55;;
81314;SDS011;75773;52.534;5.686;2024-02-26T02:55:55;5.32;;;3.25;;
81314;SDS011;75773;52.534;5.686;2024-02-26T02:58:27;5.82;;;3.33;;
81314;SDS011;75773;52.534;5.686;2024-02-26T03:00:56;7.95;;;3.50;;
81314;SDS011;75773;52.534;5.686;2024-02-26T03:03:26;6.07;;;3.40;;
81314;SDS011;75773;52.534;5.686;2024-02-26T03:05:58;5.30;;;2.75;;
81314;SDS011;75773;52.534;5.686;2024-02-26T03:08:28;4.25;;;3.33;;
81314;SDS011;75773;52.534;5.686;2024-02-26T03:10:58;4.57;;;2.65;;
81314;SDS011;75773;52.534;5.686;2024-02-26T03:13:27;7.65;;;3.03;;
81314;SDS011;75773;52.534;5.686;2024-02-26T03:15:57;6.47;;;3.17;;
81314;SDS011;75773;52.534;5.686;2024-02-26T03:18:26;7.68;;;3.45;;
81314;SDS011;75773;52.534;5.686;2024-02-26T03:21:01;3.80;;;1.85;;
81314;SDS011;75773;52.534;5.686;2024-02-26T03:23:34;8.88;;;3.60;;
81314;SDS011;75773;52.534;5.686;2024-02-26T03:26:04;6.28;;;3.35;;
81314;SDS011;75773;52.534;5.686;2024-02-26T03:28:34;6.63;;;2.80;;
81314;SDS011;75773;52.534;5.686;2024-02-26T03:31:03;8.40;;;4.35;;
81314;SDS011;75773;52.534;5.686;2024-02-26T03:33:33;7.97;;;3.67;;
81314;SDS011;75773;52.534;5.686;2024-02-26T03:36:06;6.47;;;3.60;;
81314;SDS011;75773;52.534;5.686;2024-02-26T03:38:38;7.15;;;3.15;;
81314;SDS011;75773;52.534;5.686;2024-02-26T03:41:07;6.07;;;3.05;;
81314;SDS011;75773;52.534;5.686;2024-02-26T03:43:36;6.70;;;2.38;;
81314;SDS011;75773;52.534;5.686;2024-02-26T03:46:08;6.93;;;3.80;;
81314;SDS011;75773;52.534;5.686;2024-02-26T03:48:40;4.97;;;2.65;;
81314;SDS011;75773;52.534;5.686;2024-02-26T03:51:12;6.53;;;2.30;;
81314;SDS011;75773;52.534;5.686;2024-02-26T03:53:42;8.75;;;3.85;;
81314;SDS011;75773;52.534;5.686;2024-02-26T03:56:11;5.60;;;3.10;;
81314;SDS011;75773;52.534;5.686;2024-02-26T03:58:41;5.68;;;2.95;;
81314;SDS011;75773;52.534;5.686;2024-02-26T04:01:10;11.98;;;4.25;;
81314;SDS011;75773;52.534;5.686;2024-02-26T04:03:39;10.55;;;4.88;;
81314;SDS011;75773;52.534;5.686;2024-02-26T04:06:09;8.45;;;4.22;;
81314;SDS011;75773;52.534;5.686;2024-02-26T04:08:43;11.35;;;3.55;;
81314;SDS011;75773;52.534;5.686;2024-02-26T04:11:13;8.27;;;3.80;;
81314;SDS011;75773;52.534;5.686;2024-02-26T04:13:43;6.18;;;4.43;;
81314;SDS011;75773;52.534;5.686;2024-02-26T04:16:18;6.00;;;3.05;;
81314;SDS011;75773;52.534;5.686;2024-02-26T04:18:47;10.07;;;4.05;;
81314;SDS011;75773;52.534;5.686;2024-02-26T04:21:19;6.95;;;3.05;;
81314;SDS011;75773;52.534;5.686;2024-02-26T04:23:49;7.05;;;3.72;;
81314;SDS011;75773;52.534;5.686;2024-02-26T04:26:20;9.35;;;4.45;;
81314;SDS011;75773;52.534;5.686;2024-02-26T04:28:50;10.82;;;6.75;;
81314;SDS011;75773;52.534;5.686;2024-02-26T04:31:19;7.15;;;3.75;;
81314;SDS011;75773;52.534;5.686;2024-02-26T04:33:49;7.30;;;4.90;;
81314;SDS011;75773;52.534;5.686;2024-02-26T04:36:20;9.77;;;5.28;;
81314;SDS011;75773;52.534;5.686;2024-02-26T04:38:51;5.78;;;2.95;;
81314;SDS011;75773;52.534;5.686;2024-02-26T04:41:22;11.73;;;4.45;;
81314;SDS011;75773;52.534;5.686;2024-02-26T04:43:51;11.48;;;4.93;;
81314;SDS011;75773;52.534;5.686;2024-02-26T04:46:21;9.30;;;4.57;;
81314;SDS011;75773;52.534;5.686;2024-02-26T04:48:51;16.15;;;5.85;;
81314;SDS011;75773;52.534;5.686;2024-02-26T04:51:26;9.65;;;4.93;;
81314;SDS011;75773;52.534;5.686;2024-02-26T04:56:24;9.55;;;4.63;;
81314;SDS011;75773;52.534;5.686;2024-02-26T04:58:54;13.85;;;5.70;;
81314;SDS011;75773;52.534;5.686;2024-02-26T05:01:23;14.02;;;4.88;;
81314;SDS011;75773;52.534;5.686;2024-02-26T05:03:53;8.52;;;3.78;;
81314;SDS011;75773;52.534;5.686;2024-02-26T05:06:22;10.65;;;5.13;;
81314;SDS011;75773;52.534;5.686;2024-02-26T05:08:54;10.25;;;5.75;;
81314;SDS011;75773;52.534;5.686;2024-02-26T05:11:24;7.80;;;4.38;;
81314;SDS011;75773;52.534;5.686;2024-02-26T05:13:53;10.55;;;4.55;;
81314;SDS011;75773;52.534;5.686;2024-02-26T05:16:22;10.63;;;4.15;;
81314;SDS011;75773;52.534;5.686;2024-02-26T05:18:58;5.45;;;3.78;;
81314;SDS011;75773;52.534;5.686;2024-02-26T05:21:30;10.75;;;4.57;;
81314;SDS011;75773;52.534;5.686;2024-02-26T05:23:59;7.30;;;3.85;;
81314;SDS011;75773;52.534;5.686;2024-02-26T05:26:29;10.25;;;4.85;;
81314;SDS011;75773;52.534;5.686;2024-02-26T05:28:58;11.82;;;5.80;;
81314;SDS011;75773;52.534;5.686;2024-02-26T05:31:32;10.75;;;4.90;;
81314;SDS011;75773;52.534;5.686;2024-02-26T05:34:01;13.15;;;4.85;;
81314;SDS011;75773;52.534;5.686;2024-02-26T05:36:33;7.68;;;4.22;;
81314;SDS011;75773;52.534;5.686;2024-02-26T05:39:03;6.28;;;3.03;;
81314;SDS011;75773;52.534;5.686;2024-02-26T05:41:32;9.55;;;4.13;;
81314;SDS011;75773;52.534;5.686;2024-02-26T05:44:08;8.77;;;4.90;;
81314;SDS011;75773;52.534;5.686;2024-02-26T05:46:38;8.90;;;4.35;;
81314;SDS011;75773;52.534;5.686;2024-02-26T05:49:07;7.35;;;3.90;;
81314;SDS011;75773;52.534;5.686;2024-02-26T05:51:39;9.25;;;4.10;;
81314;SDS011;75773;52.534;5.686;2024-02-26T05:54:09;8.80;;;4.82;;
81314;SDS011;75773;52.534;5.686;2024-02-26T05:56:38;6.72;;;3.95;;
81314;SDS011;75773;52.534;5.686;2024-02-26T05:59:08;6.82;;;2.88;;
81314;SDS011;75773;52.534;5.686;2024-02-26T06:01:37;7.47;;;2.95;;
81314;SDS011;75773;52.534;5.686;2024-02-26T06:04:07;8.52;;;4.50;;
81314;SDS011;75773;52.534;5.686;2024-02-26T06:06:42;5.63;;;2.78;;
81314;SDS011;75773;52.534;5.686;2024-02-26T06:09:12;8.73;;;4.30;;
81314;SDS011;75773;52.534;5.686;2024-02-26T06:11:42;6.88;;;3.20;;
81314;SDS011;75773;52.534;5.686;2024-02-26T06:14:14;7.65;;;2.97;;
81314;SDS011;75773;52.534;5.686;2024-02-26T06:16:44;4.20;;;2.15;;
81314;SDS011;75773;52.534;5.686;2024-02-26T06:19:14;12.18;;;4.32;;
81314;SDS011;75773;52.534;5.686;2024-02-26T06:21:46;5.95;;;3.10;;
81314;SDS011;75773;52.534;5.686;2024-02-26T06:24:15;6.57;;;3.33;;
81314;SDS011;75773;52.534;5.686;2024-02-26T06:26:46;3.80;;;2.30;;
81314;SDS011;75773;52.534;5.686;2024-02-26T06:29:16;4.13;;;2.50;;
81314;SDS011;75773;52.534;5.686;2024-02-26T06:31:45;4.35;;;2.65;;
81314;SDS011;75773;52.534;5.686;2024-02-26T06:34:16;4.72;;;2.97;;
81314;SDS011;75773;52.534;5.686;2024-02-26T06:36:49;4.45;;;2.85;;
81314;SDS011;75773;52.534;5.686;2024-02-26T06:39:20;3.22;;;1.08;;
81314;SDS011;75773;52.534;5.686;2024-02-26T06:41:49;4.50;;;2.50;;
81314;SDS011;75773;52.534;5.686;2024-02-26T06:44:25;6.00;;;2.83;;
81314;SDS011;75773;52.534;5.686;2024-02-26T06:46:57;4.13;;;1.95;;
81314;SDS011;75773;52.534;5.686;2024-02-26T06:49:27;3.95;;;2.15;;
81314;SDS011;75773;52.534;5.686;2024-02-26T06:51:59;4.50;;;2.60;;
81314;SDS011;75773;52.534;5.686;2024-02-26T06:54:30;6.82;;;2.90;;
81314;SDS011;75773;52.534;5.686;2024-02-26T06:56:59;1.63;;;1.40;;
81314;SDS011;75773;52.534;5.686;2024-02-26T06:59:29;5.88;;;2.38;;
81314;SDS011;75773;52.534;5.686;2024-02-26T07:02:03;4.82;;;2.25;;
81314;SDS011;75773;52.534;5.686;2024-02-26T07:04:34;4.85;;;2.55;;
81314;SDS011;75773;52.534;5.686;2024-02-26T07:07:09;3.10;;;1.38;;
81314;SDS011;75773;52.534;5.686;2024-02-26T07:09:41;4.53;;;2.28;;
81314;SDS011;75773;52.534;5.686;2024-02-26T07:12:12;5.22;;;3.10;;
81314;SDS011;75773;52.534;5.686;2024-02-26T07:14:50;4.68;;;1.85;;
81314;SDS011;75773;52.534;5.686;2024-02-26T07:17:21;2.95;;;1.35;;
81314;SDS011;75773;52.534;5.686;2024-02-26T07:19:56;2.65;;;1.35;;
81314;SDS011;75773;52.534;5.686;2024-02-26T07:22:31;5.32;;;2.00;;
81314;SDS011;75773;52.534;5.686;2024-02-26T07:25:03;2.65;;;1.65;;
81314;SDS011;75773;52.534;5.686;2024-02-26T07:27:34;5.75;;;1.52;;
81314;SDS011;75773;52.534;5.686;2024-02-26T07:30:07;2.88;;;1.70;;
81314;SDS011;75773;52.534;5.686;2024-02-26T07:32:42;4.07;;;2.65;;
81314;SDS011;75773;52.534;5.686;2024-02-26T07:35:11;6.72;;;1.90;;
81314;SDS011;75773;52.534;5.686;2024-02-26T07:37:46;3.90;;;1.95;;
81314;SDS011;75773;52.534;5.686;2024-02-26T07:40:18;2.67;;;1.50;;
81314;SDS011;75773;52.534;5.686;2024-02-26T07:42:47;3.53;;;1.52;;
81314;SDS011;75773;52.534;5.686;2024-02-26T07:45:20;3.25;;;1.85;;
81314;SDS011;75773;52.534;5.686;2024-02-26T07:47:56;2.47;;;1.15;;
81314;SDS011;75773;52.534;5.686;2024-02-26T07:50:26;1.05;;;0.80;;
81314;SDS011;75773;52.534;5.686;2024-02-26T07:52:58;2.58;;;1.30;;
81314;SDS011;75773;52.534;5.686;2024-02-26T07:55:30;1.85;;;0.82;;
81314;SDS011;75773;52.534;5.686;2024-02-26T07:57:59;3.30;;;1.83;;
81314;SDS011;75773;52.534;5.686;2024-02-26T08:00:32;1.98;;;1.20;;
81314;SDS011;75773;52.534;5.686;2024-02-26T08:03:06;2.30;;;1.73;;
81314;SDS011;75773;52.534;5.686;2024-02-26T08:05:43;2.00;;;1.60;;
81314;SDS011;75773;52.534;5.686;2024-02-26T08:08:15;2.40;;;1.23;;
81314;SDS011;75773;52.534;5.686;2024-02-26T08:10:50;3.17;;;1.23;;
81314;SDS011;75773;52.534;5.686;2024-02-26T08:13:19;2.90;;;2.15;;
81314;SDS011;75773;52.534;5.686;2024-02-26T08:15:51;1.25;;;0.80;;
81314;SDS011;75773;52.534;5.686;2024-02-26T08:18:21;3.35;;;1.88;;
81314;SDS011;75773;52.534;5.686;2024-02-26T08:20:59;1.90;;;1.13;;
81314;SDS011;75773;52.534;5.686;2024-02-26T08:23:31;1.45;;;1.05;;
81314;SDS011;75773;52.534;5.686;2024-02-26T08:26:02;2.75;;;1.80;;
81314;SDS011;75773;52.534;5.686;2024-02-26T08:28:36;2.28;;;1.05;;
81314;SDS011;75773;52.534;5.686;2024-02-26T08:31:07;10.10;;;1.38;;
81314;SDS011;75773;52.534;5.686;2024-02-26T08:33:37;1.95;;;1.13;;
81314;SDS011;75773;52.534;5.686;2024-02-26T08:36:06;2.67;;;1.80;;
81314;SDS011;75773;52.534;5.686;2024-02-26T08:38:44;1.02;;;0.73;;
81314;SDS011;75773;52.534;5.686;2024-02-26T08:41:19;0.85;;;0.52;;
81314;SDS011;75773;52.534;5.686;2024-02-26T08:43:48;2.20;;;1.40;;
81314;SDS011;75773;52.534;5.686;2024-02-26T08:46:18;3.70;;;1.85;;
81314;SDS011;75773;52.534;5.686;2024-02-26T08:48:47;1.98;;;0.98;;
81314;SDS011;75773;52.534;5.686;2024-02-26T08:51:26;2.90;;;1.58;;
81314;SDS011;75773;52.534;5.686;2024-02-26T08:54:01;2.22;;;1.55;;
81314;SDS011;75773;52.534;5.686;2024-02-26T08:56:30;3.38;;;1.10;;
81314;SDS011;75773;52.534;5.686;2024-02-26T08:59:00;3.90;;;1.30;;
81314;SDS011;75773;52.534;5.686;2024-02-26T09:01:31;1.88;;;1.05;;
81314;SDS011;75773;52.534;5.686;2024-02-26T09:04:00;1.45;;;0.98;;
81314;SDS011;75773;52.534;5.686;2024-02-26T09:06:30;3.80;;;1.80;;
81314;SDS011;75773;52.534;5.686;2024-02-26T09:09:02;1.95;;;1.08;;
81314;SDS011;75773;52.534;5.686;2024-02-26T09:11:31;1.52;;;1.10;;
81314;SDS011;75773;52.534;5.686;2024-02-26T09:14:01;1.83;;;1.02;;
81314;SDS011;75773;52.534;5.686;2024-02-26T09:16:36;3.55;;;1.85;;
81314;SDS011;75773;52.534;5.686;2024-02-26T09:19:05;3.47;;;1.60;;
81314;SDS011;75773;52.534;5.686;2024-02-26T09:21:34;3.08;;;1.23;;
81314;SDS011;75773;52.534;5.686;2024-02-26T09:24:06;1.75;;;1.35;;
81314;SDS011;75773;52.534;5.686;2024-02-26T09:26:38;1.08;;;0.73;;
81314;SDS011;75773;52.534;5.686;2024-02-26T09:29:08;1.83;;;1.00;;
81314;SDS011;75773;52.534;5.686;2024-02-26T09:31:37;2.63;;;1.10;;
81314;SDS011;75773;52.534;5.686;2024-02-26T09:34:09;4.68;;;1.10;;
81314;SDS011;75773;52.534;5.686;2024-02-26T09:36:38;2.58;;;0.77;;
81314;SDS011;75773;52.534;5.686;2024-02-26T09:39:10;2.00;;;1.17;;
81314;SDS011;75773;52.534;5.686;2024-02-26T09:44:13;1.63;;;1.13;;
81314;SDS011;75773;52.534;5.686;2024-02-26T09:46:47;1.80;;;0.98;;
81314;SDS011;75773;52.534;5.686;2024-02-26T09:49:18;2.38;;;1.13;;
81314;SDS011;75773;52.534;5.686;2024-02-26T09:51:50;1.55;;;0.85;;
81314;SDS011;75773;52.534;5.686;2024-02-26T09:54:26;1.35;;;0.93;;
81314;SDS011;75773;52.534;5.686;2024-02-26T09:56:57;2.58;;;1.20;;
81314;SDS011;75773;52.534;5.686;2024-02-26T10:02:13;2.08;;;1.40;;
81314;SDS011;75773;52.534;5.686;2024-02-26T10:04:46;3.25;;;1.60;;
81314;SDS011;75773;52.534;5.686;2024-02-26T10:07:16;1.90;;;1.35;;
81314;SDS011;75773;52.534;5.686;2024-02-26T10:09:48;2.33;;;1.33;;
81314;SDS011;75773;52.534;5.686;2024-02-26T10:12:19;2.78;;;1.42;;
81314;SDS011;75773;52.534;5.686;2024-02-26T10:14:48;3.10;;;1.95;;
81314;SDS011;75773;52.534;5.686;2024-02-26T10:17:18;1.85;;;1.25;;
81314;SDS011;75773;52.534;5.686;2024-02-26T10:20:10;3.83;;;1.77;;
81314;SDS011;75773;52.534;5.686;2024-02-26T10:22:49;2.08;;;0.95;;
81314;SDS011;75773;52.534;5.686;2024-02-26T10:25:41;3.45;;;1.55;;
81314;SDS011;75773;52.534;5.686;2024-02-26T10:28:21;2.13;;;1.05;;
81314;SDS011;75773;52.534;5.686;2024-02-26T10:30:55;3.33;;;1.02;;
81314;SDS011;75773;52.534;5.686;2024-02-26T10:33:26;4.43;;;1.58;;
81314;SDS011;75773;52.534;5.686;2024-02-26T10:36:10;1.92;;;1.20;;
81314;SDS011;75773;52.534;5.686;2024-02-26T10:38:40;1.95;;;1.27;;
81314;SDS011;75773;52.534;5.686;2024-02-26T10:41:15;1.30;;;0.95;;
81314;SDS011;75773;52.534;5.686;2024-02-26T10:43:47;1.30;;;0.90;;
81314;SDS011;75773;52.534;5.686;2024-02-26T10:46:21;2.22;;;1.25;;
81314;SDS011;75773;52.534;5.686;2024-02-26T10:48:52;1.45;;;1.02;;
81314;SDS011;75773;52.534;5.686;2024-02-26T10:51:27;3.10;;;0.90;;
81314;SDS011;75773;52.534;5.686;2024-02-26T10:54:01;2.42;;;1.42;;
81314;SDS011;75773;52.534;5.686;2024-02-26T10:56:48;0.68;;;0.35;;
81314;SDS011;75773;52.534;5.686;2024-02-26T10:59:19;5.13;;;1.10;;
81314;SDS011;75773;52.534;5.686;2024-02-26T11:01:50;2.15;;;1.40;;
81314;SDS011;75773;52.534;5.686;2024-02-26T11:04:20;2.63;;;1.35;;
81314;SDS011;75773;52.534;5.686;2024-02-26T11:06:53;2.20;;;1.17;;
81314;SDS011;75773;52.534;5.686;2024-02-26T11:09:27;1.85;;;1.27;;
81314;SDS011;75773;52.534;5.686;2024-02-26T11:12:01;2.38;;;1.20;;
81314;SDS011;75773;52.534;5.686;2024-02-26T11:14:36;6.60;;;1.67;;
81314;SDS011;75773;52.534;5.686;2024-02-26T11:17:08;3.72;;;1.42;;
81314;SDS011;75773;52.534;5.686;2024-02-26T11:19:39;3.88;;;1.67;;
81314;SDS011;75773;52.534;5.686;2024-02-26T11:22:14;1.02;;;0.93;;
81314;SDS011;75773;52.534;5.686;2024-02-26T11:24:43;3.22;;;1.40;;
81314;SDS011;75773;52.534;5.686;2024-02-26T11:27:18;2.72;;;1.08;;
81314;SDS011;75773;52.534;5.686;2024-02-26T11:29:55;2.42;;;1.33;;
81314;SDS011;75773;52.534;5.686;2024-02-26T11:32:27;2.00;;;0.80;;
81314;SDS011;75773;52.534;5.686;2024-02-26T11:35:04;2.85;;;0.90;;
81314;SDS011;75773;52.534;5.686;2024-02-26T11:37:36;1.35;;;0.68;;
81314;SDS011;75773;52.534;5.686;2024-02-26T11:40:06;1.25;;;0.75;;
81314;SDS011;75773;52.534;5.686;2024-02-26T11:42:51;2.10;;;0.90;;
81314;SDS011;75773;52.534;5.686;2024-02-26T11:48:25;1.83;;;1.38;;
81314;SDS011;75773;52.534;5.686;2024-02-26T11:50:59;2.88;;;2.03;;
81314;SDS011;75773;52.534;5.686;2024-02-26T11:53:45;1.90;;;0.80;;
81314;SDS011;75773;52.534;5.686;2024-02-26T11:56:21;1.35;;;0.95;;
81314;SDS011;75773;52.534;5.686;2024-02-26T11:59:03;3.13;;;1.50;;
81314;SDS011;75773;52.534;5.686;2024-02-26T12:01:42;1.55;;;1.02;;
81314;SDS011;75773;52.534;5.686;2024-02-26T12:04:15;1.63;;;1.27;;
81314;SDS011;75773;52.534;5.686;2024-02-26T12:06:47;1.17;;;0.80;;
81314;SDS011;75773;52.534;5.686;2024-02-26T12:09:36;1.83;;;1.25;;
81314;SDS011;75773;52.534;5.686;2024-02-26T12:12:07;1.30;;;1.20;;
81314;SDS011;75773;52.534;5.686;2024-02-26T12:14:50;1.98;;;1.00;;
81314;SDS011;75773;52.534;5.686;2024-02-26T12:17:30;2.33;;;1.38;;
81314;SDS011;75773;52.534;5.686;2024-02-26T12:20:07;1.50;;;1.23;;
81314;SDS011;75773;52.534;5.686;2024-02-26T12:25:08;2.00;;;1.10;;
81314;SDS011;75773;52.534;5.686;2024-02-26T12:27:38;1.77;;;1.10;;
81314;SDS011;75773;52.534;5.686;2024-02-26T12:30:11;1.52;;;0.93;;
81314;SDS011;75773;52.534;5.686;2024-02-26T12:32:41;3.05;;;1.23;;
81314;SDS011;75773;52.534;5.686;2024-02-26T12:35:10;2.22;;;1.10;;
81314;SDS011;75773;52.534;5.686;2024-02-26T12:37:41;2.58;;;1.23;;
81314;SDS011;75773;52.534;5.686;2024-02-26T12:40:11;1.58;;;1.00;;
81314;SDS011;75773;52.534;5.686;2024-02-26T12:42:43;1.35;;;0.55;;
81314;SDS011;75773;52.534;5.686;2024-02-26T12:45:15;2.63;;;0.82;;
81314;SDS011;75773;52.534;5.686;2024-02-26T12:47:46;2.15;;;0.70;;
81314;SDS011;75773;52.534;5.686;2024-02-26T12:50:16;1.35;;;0.70;;
81314;SDS011;75773;52.534;5.686;2024-02-26T12:52:49;3.75;;;1.45;;
81314;SDS011;75773;52.534;5.686;2024-02-26T12:55:20;1.02;;;0.68;;
81314;SDS011;75773;52.534;5.686;2024-02-26T12:57:49;4.22;;;1.40;;
81314;SDS011;75773;52.534;5.686;2024-02-26T13:00:24;1.25;;;0.90;;
81314;SDS011;75773;52.534;5.686;2024-02-26T13:02:55;1.27;;;0.77;;
81314;SDS011;75773;52.534;5.686;2024-02-26T13:05:25;6.57;;;1.08;;
81314;SDS011;75773;52.534;5.686;2024-02-26T13:07:55;5.38;;;0.88;;
81314;SDS011;75773;52.534;5.686;2024-02-26T13:10:24;1.10;;;0.70;;
81314;SDS011;75773;52.534;5.686;2024-02-26T13:12:54;1.73;;;1.20;;
81314;SDS011;75773;52.534;5.686;2024-02-26T13:15:26;1.55;;;0.80;;
81314;SDS011;75773;52.534;5.686;2024-02-26T13:17:55;1.42;;;0.60;;
81314;SDS011;75773;52.534;5.686;2024-02-26T13:20:25;1.25;;;0.70;;
81314;SDS011;75773;52.534;5.686;2024-02-26T13:23:02;1.08;;;0.75;;
81314;SDS011;75773;52.534;5.686;2024-02-26T13:25:31;2.63;;;1.10;;
81314;SDS011;75773;52.534;5.686;2024-02-26T13:28:08;1.80;;;0.93;;
81314;SDS011;75773;52.534;5.686;2024-02-26T13:30:41;4.20;;;1.27;;
81314;SDS011;75773;52.534;5.686;2024-02-26T13:33:10;1.63;;;0.68;;
81314;SDS011;75773;52.534;5.686;2024-02-26T13:35:40;3.88;;;1.13;;
81314;SDS011;75773;52.534;5.686;2024-02-26T13:38:10;1.60;;;1.02;;
81314;SDS011;75773;52.534;5.686;2024-02-26T13:40:40;2.13;;;1.13;;
81314;SDS011;75773;52.534;5.686;2024-02-26T13:43:09;2.40;;;1.73;;
81314;SDS011;75773;52.534;5.686;2024-02-26T13:45:41;1.58;;;0.80;;
81314;SDS011;75773;52.534;5.686;2024-02-26T13:48:12;4.15;;;1.58;;
81314;SDS011;75773;52.534;5.686;2024-02-26T13:50:42;1.90;;;1.05;;
81314;SDS011;75773;52.534;5.686;2024-02-26T13:53:12;0.95;;;0.60;;
81314;SDS011;75773;52.534;5.686;2024-02-26T13:55:45;4.30;;;1.25;;
81314;SDS011;75773;52.534;5.686;2024-02-26T13:58:14;2.22;;;1.75;;
81314;SDS011;75773;52.534;5.686;2024-02-26T14:00:51;1.70;;;1.15;;
81314;SDS011;75773;52.534;5.686;2024-02-26T14:03:20;2.58;;;1.45;;
81314;SDS011;75773;52.534;5.686;2024-02-26T14:05:49;1.65;;;0.77;;
81314;SDS011;75773;52.534;5.686;2024-02-26T14:08:22;4.18;;;1.27;;
81314;SDS011;75773;52.534;5.686;2024-02-26T14:10:52;2.60;;;1.15;;
81314;SDS011;75773;52.534;5.686;2024-02-26T14:13:21;1.80;;;1.02;;
81314;SDS011;75773;52.534;5.686;2024-02-26T14:15:53;2.58;;;1.17;;
81314;SDS011;75773;52.534;5.686;2024-02-26T14:18:22;2.10;;;1.52;;
81314;SDS011;75773;52.534;5.686;2024-02-26T14:20:53;1.73;;;1.00;;
81314;SDS011;75773;52.534;5.686;2024-02-26T14:23:24;1.67;;;1.00;;
81314;SDS011;75773;52.534;5.686;2024-02-26T14:25:53;2.35;;;1.38;;
81314;SDS011;75773;52.534;5.686;2024-02-26T14:28:23;3.72;;;1.58;;
81314;SDS011;75773;52.534;5.686;2024-02-26T14:30:56;2.00;;;1.35;;
81314;SDS011;75773;52.534;5.686;2024-02-26T14:33:29;2.13;;;1.23;;
81314;SDS011;75773;52.534;5.686;2024-02-26T14:36:00;2.28;;;1.45;;
81314;SDS011;75773;52.534;5.686;2024-02-26T14:38:30;3.70;;;1.73;;
81314;SDS011;75773;52.534;5.686;2024-02-26T14:40:59;4.68;;;2.85;;
81314;SDS011;75773;52.534;5.686;2024-02-26T14:43:29;6.38;;;2.10;;
81314;SDS011;75773;52.534;5.686;2024-02-26T14:46:03;4.35;;;1.95;;
81314;SDS011;75773;52.534;5.686;2024-02-26T14:48:32;6.28;;;2.03;;
81314;SDS011;75773;52.534;5.686;2024-02-26T14:51:02;3.45;;;1.67;;
81314;SDS011;75773;52.534;5.686;2024-02-26T14:53:32;1.70;;;1.00;;
81314;SDS011;75773;52.534;5.686;2024-02-26T14:56:01;4.28;;;2.22;;
81314;SDS011;75773;52.534;5.686;2024-02-26T14:58:30;5.72;;;1.90;;
81314;SDS011;75773;52.534;5.686;2024-02-26T15:00:59;3.63;;;1.65;;
81314;SDS011;75773;52.534;5.686;2024-02-26T15:03:36;3.17;;;1.55;;
81314;SDS011;75773;52.534;5.686;2024-02-26T15:06:06;4.90;;;1.73;;
81314;SDS011;75773;52.534;5.686;2024-02-26T15:08:35;4.57;;;1.70;;
81314;SDS011;75773;52.534;5.686;2024-02-26T15:11:05;6.85;;;2.42;;
81314;SDS011;75773;52.534;5.686;2024-02-26T15:13:35;4.97;;;2.85;;
81314;SDS011;75773;52.534;5.686;2024-02-26T15:16:08;4.10;;;2.45;;
81314;SDS011;75773;52.534;5.686;2024-02-26T15:18:37;4.30;;;2.53;;
81314;SDS011;75773;52.534;5.686;2024-02-26T15:21:06;3.42;;;2.45;;
81314;SDS011;75773;52.534;5.686;2024-02-26T15:23:38;7.53;;;3.42;;
81314;SDS011;75773;52.534;5.686;2024-02-26T15:26:07;6.53;;;2.20;;
81314;SDS011;75773;52.534;5.686;2024-02-26T15:28:39;6.72;;;2.35;;